ASN logo
Last updated: 18 June 2019
Statuts:
Date:jeudi 11 juin 2015
Heure:ca 19:00
Type/Sous-type:Silhouette image of generic H25B model; specific model in this crash may look slightly different
Hawker 800XP
Compagnie:Swat Technology, LLC
Immatriculation: N497AG
Numéro de série: 258439
Année de Fabrication: 1999
Equipage:victimes: 0 / à bord:
Passagers:victimes: 0 / à bord:
Total:victimes: 0 / à bord:
Dégats de l'appareil: Substantiels
Conséquences: Written off (damaged beyond repair)
Lieu de l'accident:Port Harcourt Airport (PHC) (   Nigéria)
Phase de vol: A l'atterrissage (LDG)
Nature:Inconnu
Aéroport de départ:?
Aéroport de destination:Port Harcourt Airport (PHC/DNPO), Nigéria
Détails:
The nose landing gear of a Hawker 800XP collapsed as it landed at Port Harcourt Airport (PHC/DNPO), Nigeria.

Sources:
» gistarena.com.ng

METAR Weather report:
15:00 UTC / 18:00 local time:
METAR DNPO 111500Z 26004KT 8000 TS BKN012 FEW020CB 29/25 Q1010 TEMPO 15008G15KT 5000 -TSRA BKN008 FEW018CB


Photos

Add your photo of this accident or aircraft

Video, social media

Les informations ci-dessus ne représentent pas l'opinion de la 'Flight Safety Foundation' ou de 'Aviation Safety Network' sur les causes de l'accident. Ces informations prélimimaires sont basées sur les faits tel qu'ils sont connus à ce jour.
languages: languages

Share